KPWK

Chicago Executive Airport

Chicago/Prospect Heights/Wheeling, Illinois, USA
METAR KPWK 181452Z 23006KT 10SM CLR 09/M07 A3053 RMK AO2 SLP344 T00941067 50004
Observed Flight Rules
Oct-18 @ 14:52 UTC (an hour ago) Visual Flight Rules
Wind Visibility Clouds
230° at 6 knots 10 miles
  • Clear skies
Temperatures Readings
Current 9°C / 48°F
Dewpoint -7°C / 19°F
Humidity 32%
Altimeter 30.53" Hg
Pressure 1034.4 hPa
Elevation 203
METAR KPWK 181452Z 23006KT 10SM CLR 09/M07 A3053 RMK AO2 SLP344 T00941067 50004
Observed Flight Rules
Oct-18 @ 14:52 UTC
(an hour ago)
VFR
Wind Visibility
230° at 6 knots 10 miles
Clouds
  • Clear skies
Temperature Dewpoint
9°C / 48°F -7°C / 19°F
Humidity Altimeter Pressure
32% 30.53" Hg 1034.4 hPa